Time;durP1;ratioP1;P1;durP2;ratioP2;P2;SDS_P1;SDS_P2;PMS_P1;PMS_P2;Temp;Humidity;BMP_temperature;BMP_pressure;BME280_temperature;BME280_humidity;BME280_pressure;Samples;Min_cycle;Max_cycle;Signal;HPM_P1;HPM_P2
2021/08/17 00:00:13;;;;;;;;;;;13.20;92.50;;;;;;5079844;28;20389;-72
2021/08/17 00:02:39;;;;;;;;;;;13.30;92.50;;;;;;5079423;28;20299;-73
2021/08/17 00:05:06;;;;;;;;;;;13.30;92.50;;;;;;5080739;28;20010;-73
2021/08/17 00:07:31;;;;;;;;;;;13.30;92.60;;;;;;5083129;28;20011;-72
2021/08/17 00:09:56;;;;;;;;;;;13.40;92.80;;;;;;5083557;28;20058;-73
2021/08/17 00:12:22;;;;;;;;;;;13.30;92.70;;;;;;5083377;28;20435;-73
2021/08/17 00:14:48;;;;;;;;;;;13.40;92.70;;;;;;5083456;28;19908;-73
2021/08/17 00:17:14;;;;;;;;;;;13.40;92.80;;;;;;5083487;28;20021;-72
2021/08/17 00:19:40;;;;;;;;;;;13.40;92.90;;;;;;5083164;28;19908;-72
2021/08/17 00:22:09;;;;;;;;;;;13.40;92.80;;;;;;5083274;28;19912;-72
2021/08/17 00:24:34;;;;;;;;;;;13.50;92.90;;;;;;5082982;28;20371;-72
2021/08/17 00:27:00;;;;;;;;;;;13.50;92.90;;;;;;5083423;28;19915;-72
2021/08/17 00:29:25;;;;;;;;;;;13.50;92.90;;;;;;5082587;28;19915;-77
2021/08/17 00:31:51;;;;;;;;;;;13.50;92.90;;;;;;5082897;28;19917;-77
2021/08/17 00:34:16;;;;;;;;;;;13.50;93.00;;;;;;5083100;28;20003;-77
2021/08/17 00:36:42;;;;;;;;;;;13.50;93.00;;;;;;5082786;28;19916;-77
2021/08/17 00:39:07;;;;;;;;;;;13.50;93.20;;;;;;5081594;28;19908;-77
2021/08/17 00:41:34;;;;;;;;;;;13.50;93.30;;;;;;5082892;28;19916;-77
2021/08/17 00:43:59;;;;;;;;;;;13.50;93.40;;;;;;5081118;28;19908;-77
2021/08/17 00:46:25;;;;;;;;;;;13.50;93.60;;;;;;5082671;28;20291;-77
2021/08/17 00:48:50;;;;;;;;;;;13.50;94.00;;;;;;5082839;28;19912;-77
2021/08/17 00:51:16;;;;;;;;;;;13.40;94.30;;;;;;5082689;28;20007;-77
2021/08/17 00:53:43;;;;;;;;;;;13.40;94.50;;;;;;5082227;28;19970;-76
2021/08/17 00:56:08;;;;;;;;;;;13.40;94.80;;;;;;5082533;28;19912;-76
2021/08/17 00:58:34;;;;;;;;;;;13.30;94.80;;;;;;5082429;28;20291;-76
2021/08/17 01:00:59;;;;;;;;;;;13.30;94.90;;;;;;5082720;28;19956;-71
2021/08/17 01:03:26;;;;;;;;;;;13.30;95.10;;;;;;5082185;28;19920;-71
2021/08/17 01:05:52;;;;;;;;;;;13.30;95.30;;;;;;5097246;28;20280;-71
2021/08/17 01:08:17;;;;;;;;;;;13.30;95.30;;;;;;5082408;28;20022;-71
2021/08/17 01:10:44;;;;;;;;;;;13.20;95.50;;;;;;5081811;28;19908;-71
2021/08/17 01:13:09;;;;;;;;;;;13.20;95.70;;;;;;5082618;28;19908;-71
2021/08/17 01:15:35;;;;;;;;;;;13.20;96.10;;;;;;5080722;28;20397;-71
2021/08/17 01:18:01;;;;;;;;;;;13.10;96.00;;;;;;5081414;28;19918;-71
2021/08/17 01:20:27;;;;;;;;;;;13.20;96.30;;;;;;5081951;28;19912;-71
2021/08/17 01:22:52;;;;;;;;;;;13.10;96.20;;;;;;5081500;28;19953;-71
2021/08/17 01:25:18;;;;;;;;;;;13.10;96.40;;;;;;5081925;28;19912;-71
2021/08/17 01:27:44;;;;;;;;;;;13.10;96.40;;;;;;5082091;28;19908;-71
2021/08/17 01:30:10;;;;;;;;;;;13.10;96.50;;;;;;5081886;28;19909;-71
2021/08/17 01:32:36;;;;;;;;;;;13.10;96.60;;;;;;5081308;28;19927;-71
2021/08/17 01:35:02;;;;;;;;;;;13.10;96.70;;;;;;5081679;28;19908;-71
2021/08/17 01:37:27;;;;;;;;;;;13.10;96.60;;;;;;5081830;28;20367;-72
2021/08/17 01:40:04;;;;;;;;;;;13.10;96.70;;;;;;5081635;28;20008;-71
2021/08/17 01:42:30;;;;;;;;;;;13.10;96.90;;;;;;5079716;28;20282;-71
2021/08/17 01:44:56;;;;;;;;;;;13.10;96.90;;;;;;5081664;28;19908;-71
2021/08/17 01:47:21;;;;;;;;;;;13.20;96.80;;;;;;5081248;28;19912;-71
2021/08/17 01:49:47;;;;;;;;;;;13.20;96.80;;;;;;5081357;28;19962;-72
2021/08/17 01:52:12;;;;;;;;;;;13.10;97.00;;;;;;5081781;28;19947;-72
2021/08/17 01:54:38;;;;;;;;;;;13.10;97.10;;;;;;5081251;28;20031;-72
2021/08/17 01:57:03;;;;;;;;;;;13.10;97.10;;;;;;5081207;28;19912;-71
2021/08/17 01:59:30;;;;;;;;;;;13.10;97.10;;;;;;5081241;28;19913;-71
2021/08/17 02:01:57;;;;;;;;;;;13.10;97.10;;;;;;5080960;28;20420;-76
2021/08/17 02:04:23;;;;;;;;;;;13.20;97.10;;;;;;5080877;28;19948;-77
2021/08/17 02:06:48;;;;;;;;;;;13.20;97.20;;;;;;5081185;28;19970;-72
2021/08/17 02:09:13;;;;;;;;;;;13.20;97.20;;;;;;5081126;28;20030;-71
2021/08/17 02:11:39;;;;;;;;;;;13.20;97.20;;;;;;5080960;28;20442;-72
2021/08/17 02:14:04;;;;;;;;;;;13.20;97.20;;;;;;5080573;28;19995;-71
2021/08/17 02:16:31;;;;;;;;;;;13.20;97.20;;;;;;5080950;28;19921;-76
2021/08/17 02:18:56;;;;;;;;;;;13.20;97.30;;;;;;5079617;28;19908;-76
2021/08/17 02:21:22;;;;;;;;;;;13.20;97.20;;;;;;5079550;28;20383;-72
2021/08/17 02:23:47;;;;;;;;;;;13.30;97.30;;;;;;5080536;28;19909;-68
2021/08/17 02:26:13;;;;;;;;;;;13.30;97.30;;;;;;5081040;28;20424;-76
2021/08/17 02:28:38;;;;;;;;;;;13.30;97.20;;;;;;5079350;28;19916;-71
2021/08/17 02:31:04;;;;;;;;;;;13.30;97.20;;;;;;5079483;28;19912;-76
2021/08/17 02:33:29;;;;;;;;;;;13.40;97.20;;;;;;5080570;28;19923;-76
2021/08/17 02:35:54;;;;;;;;;;;13.40;97.20;;;;;;5080799;28;20242;-77
2021/08/17 02:38:20;;;;;;;;;;;13.40;97.10;;;;;;5080556;28;19931;-68
2021/08/17 02:40:45;;;;;;;;;;;13.40;97.20;;;;;;5080651;28;20303;-68
2021/08/17 02:43:11;;;;;;;;;;;13.40;97.20;;;;;;5080812;28;20290;-68
2021/08/17 02:45:36;;;;;;;;;;;13.40;97.10;;;;;;5062124;28;20438;-72
2021/08/17 02:48:02;;;;;;;;;;;13.40;97.00;;;;;;5079587;28;19920;-72
2021/08/17 02:50:28;;;;;;;;;;;13.50;97.00;;;;;;5080028;28;19953;-76
2021/08/17 02:52:54;;;;;;;;;;;13.50;97.10;;;;;;5080435;28;20566;-76
2021/08/17 02:55:19;;;;;;;;;;;13.50;97.20;;;;;;5079920;28;20278;-76
2021/08/17 02:57:55;;;;;;;;;;;13.50;97.10;;;;;;5080457;28;19915;-76
2021/08/17 03:00:20;;;;;;;;;;;13.50;97.20;;;;;;5080164;28;19920;-71
2021/08/17 03:02:46;;;;;;;;;;;13.50;97.20;;;;;;5080389;28;19908;-71
2021/08/17 03:05:11;;;;;;;;;;;13.50;97.20;;;;;;5080595;28;19916;-71
2021/08/17 03:07:46;;;;;;;;;;;13.50;97.30;;;;;;5080230;28;19919;-71
2021/08/17 03:10:11;;;;;;;;;;;13.50;97.30;;;;;;5079853;28;20326;-71
2021/08/17 03:12:37;;;;;;;;;;;13.50;97.40;;;;;;5080171;28;19918;-71
2021/08/17 03:15:02;;;;;;;;;;;13.40;97.40;;;;;;5080245;28;19912;-71
2021/08/17 03:17:28;;;;;;;;;;;13.50;97.60;;;;;;5080271;28;19947;-71
2021/08/17 03:19:53;;;;;;;;;;;13.50;97.60;;;;;;5079812;28;20013;-71
2021/08/17 03:22:19;;;;;;;;;;;13.50;97.70;;;;;;5078817;28;19913;-71
2021/08/17 03:24:44;;;;;;;;;;;13.40;97.60;;;;;;5080453;28;20386;-67
2021/08/17 03:27:09;;;;;;;;;;;13.40;97.60;;;;;;5080212;28;19913;-68
2021/08/17 03:29:35;;;;;;;;;;;13.40;97.70;;;;;;5080028;28;19920;-67
2021/08/17 03:32:00;;;;;;;;;;;13.40;97.60;;;;;;5078779;28;20379;-71
2021/08/17 03:34:26;;;;;;;;;;;13.40;97.70;;;;;;5080024;28;20463;-76
2021/08/17 03:36:51;;;;;;;;;;;13.50;97.60;;;;;;5079047;28;20007;-76
2021/08/17 03:39:17;;;;;;;;;;;13.50;97.60;;;;;;5080341;28;19912;-76
2021/08/17 03:41:42;;;;;;;;;;;13.50;97.60;;;;;;5083298;28;19912;-71
2021/08/17 03:44:07;;;;;;;;;;;13.40;97.40;;;;;;5083875;28;19913;-71
2021/08/17 03:46:33;;;;;;;;;;;13.50;97.40;;;;;;5083871;28;19908;-71
2021/08/17 03:48:58;;;;;;;;;;;13.50;97.30;;;;;;5084119;28;19931;-71
2021/08/17 03:51:24;;;;;;;;;;;13.50;97.30;;;;;;5083624;28;19909;-71
2021/08/17 03:53:49;;;;;;;;;;;13.50;97.20;;;;;;5083165;28;19912;-68
2021/08/17 03:56:15;;;;;;;;;;;13.50;97.10;;;;;;5082195;28;19912;-67
2021/08/17 03:58:40;;;;;;;;;;;13.50;97.00;;;;;;5083627;28;19913;-68
2021/08/17 04:01:05;;;;;;;;;;;13.50;96.90;;;;;;5083732;28;19920;-76
2021/08/17 04:03:31;;;;;;;;;;;13.50;96.80;;;;;;5082136;28;19961;-71
2021/08/17 04:05:56;;;;;;;;;;;13.60;96.80;;;;;;5083505;28;20303;-76
2021/08/17 04:08:22;;;;;;;;;;;13.50;96.70;;;;;;5083302;28;19912;-72
2021/08/17 04:10:47;;;;;;;;;;;13.60;96.60;;;;;;5083189;28;19954;-72
2021/08/17 04:13:13;;;;;;;;;;;13.60;96.60;;;;;;5083602;28;19909;-71
2021/08/17 04:15:38;;;;;;;;;;;13.60;96.50;;;;;;5082729;28;19919;-71
2021/08/17 04:18:04;;;;;;;;;;;13.60;96.50;;;;;;5082187;28;19908;-71
2021/08/17 04:20:30;;;;;;;;;;;13.60;96.50;;;;;;5082528;28;19915;-71
2021/08/17 04:22:56;;;;;;;;;;;13.60;96.40;;;;;;5083296;28;19954;-71
2021/08/17 04:25:21;;;;;;;;;;;13.60;96.30;;;;;;5081380;28;19956;-71
2021/08/17 04:27:48;;;;;;;;;;;13.50;96.20;;;;;;5083464;28;19915;-71
2021/08/17 04:30:13;;;;;;;;;;;13.60;96.20;;;;;;5083245;28;19965;-71
2021/08/17 04:32:39;;;;;;;;;;;13.60;96.20;;;;;;5082819;28;19916;-71
2021/08/17 04:35:05;;;;;;;;;;;13.60;96.10;;;;;;5083136;28;19954;-71
2021/08/17 04:37:30;;;;;;;;;;;13.60;95.90;;;;;;5082842;28;19987;-76
2021/08/17 04:39:56;;;;;;;;;;;13.50;95.80;;;;;;5081338;28;20375;-76
2021/08/17 04:42:21;;;;;;;;;;;13.60;96.00;;;;;;5082941;28;19938;-76
2021/08/17 04:44:47;;;;;;;;;;;13.60;96.20;;;;;;5082914;28;19912;-76
2021/08/17 04:47:12;;;;;;;;;;;13.50;96.30;;;;;;5082894;28;19908;-76
2021/08/17 04:49:37;;;;;;;;;;;13.50;96.40;;;;;;5081185;28;19912;-76
2021/08/17 04:52:03;;;;;;;;;;;13.50;96.50;;;;;;5081578;28;20302;-76
2021/08/17 04:54:28;;;;;;;;;;;13.50;96.60;;;;;;5082088;28;19908;-76
2021/08/17 04:56:54;;;;;;;;;;;13.40;96.70;;;;;;5082531;28;20306;-68
2021/08/17 04:59:19;;;;;;;;;;;13.40;96.70;;;;;;5082570;28;19908;-68
2021/08/17 05:01:45;;;;;;;;;;;13.40;96.80;;;;;;5082687;28;19965;-68
2021/08/17 05:04:10;;;;;;;;;;;13.40;96.80;;;;;;5081106;28;19908;-68
2021/08/17 05:06:35;;;;;;;;;;;13.40;96.70;;;;;;5082073;28;19916;-76
2021/08/17 05:09:02;;;;;;;;;;;13.40;96.60;;;;;;5082587;28;19962;-76
2021/08/17 05:11:27;;;;;;;;;;;13.40;96.50;;;;;;5082030;28;19958;-71
2021/08/17 05:13:53;;;;;;;;;;;13.40;96.40;;;;;;5081967;28;19951;-71
2021/08/17 05:16:18;;;;;;;;;;;13.50;96.30;;;;;;5082094;28;20390;-71
2021/08/17 05:18:45;;;;;;;;;;;13.50;96.20;;;;;;5082132;28;20344;-72
2021/08/17 05:21:10;;;;;;;;;;;13.50;96.00;;;;;;5082070;28;19985;-71
2021/08/17 05:23:36;;;;;;;;;;;13.50;96.00;;;;;;5081883;28;20555;-76
2021/08/17 05:26:01;;;;;;;;;;;13.50;96.00;;;;;;5082058;28;19915;-76
2021/08/17 05:28:26;;;;;;;;;;;13.50;96.00;;;;;;5081886;28;19908;-76
2021/08/17 05:30:52;;;;;;;;;;;13.50;96.00;;;;;;5081788;28;19917;-76
2021/08/17 05:33:17;;;;;;;;;;;13.50;96.00;;;;;;5081704;28;19916;-76
2021/08/17 05:35:43;;;;;;;;;;;13.50;96.00;;;;;;5081215;28;19915;-76
2021/08/17 05:38:09;;;;;;;;;;;13.50;95.80;;;;;;5081871;28;19996;-76
2021/08/17 05:40:35;;;;;;;;;;;13.50;95.70;;;;;;5081530;28;20452;-76
2021/08/17 05:43:02;;;;;;;;;;;13.60;95.60;;;;;;5081708;28;19909;-72
2021/08/17 05:45:27;;;;;;;;;;;13.60;95.60;;;;;;5081819;28;19909;-76
2021/08/17 05:47:53;;;;;;;;;;;13.70;95.50;;;;;;5080337;28;19965;-76
2021/08/17 05:50:18;;;;;;;;;;;13.70;95.30;;;;;;5081963;28;19943;-76
2021/08/17 05:52:44;;;;;;;;;;;13.70;95.00;;;;;;5080839;28;19947;-76
2021/08/17 05:55:10;;;;;;;;;;;13.70;95.00;;;;;;5081730;28;19912;-76
2021/08/17 05:57:35;;;;;;;;;;;13.70;94.90;;;;;;5080874;28;20234;-76
2021/08/17 06:00:03;;;;;;;;;;;13.80;94.90;;;;;;5081360;28;19939;-76
2021/08/17 06:02:28;;;;;;;;;;;13.80;94.90;;;;;;5080790;28;19916;-76
2021/08/17 06:04:53;;;;;;;;;;;13.90;94.90;;;;;;5080800;28;19912;-76
2021/08/17 06:07:19;;;;;;;;;;;13.90;94.70;;;;;;5081178;28;19908;-76
2021/08/17 06:09:45;;;;;;;;;;;13.90;94.40;;;;;;5081249;28;19915;-77
2021/08/17 06:12:10;;;;;;;;;;;14.00;94.20;;;;;;5081250;28;20260;-76
2021/08/17 06:14:37;;;;;;;;;;;14.00;94.20;;;;;;5079728;28;20379;-76
2021/08/17 06:17:03;;;;;;;;;;;14.10;94.20;;;;;;5080748;28;19967;-76
2021/08/17 06:19:28;;;;;;;;;;;14.10;94.10;;;;;;5080953;28;19919;-72
2021/08/17 06:21:54;;;;;;;;;;;14.10;93.90;;;;;;5080476;28;19913;-72
2021/08/17 06:24:19;;;;;;;;;;;14.10;93.80;;;;;;5080920;28;20267;-72
2021/08/17 06:26:45;;;;;;;;;;;14.20;93.70;;;;;;5080975;28;19912;-72
2021/08/17 06:29:10;;;;;;;;;;;14.20;93.60;;;;;;5080721;28;19912;-72
2021/08/17 06:31:36;;;;;;;;;;;14.20;93.70;;;;;;5080105;28;20296;-72
2021/08/17 06:34:01;;;;;;;;;;;14.30;93.40;;;;;;5080625;28;19928;-72
2021/08/17 06:36:27;;;;;;;;;;;14.30;93.30;;;;;;5080844;28;19912;-71
2021/08/17 06:38:53;;;;;;;;;;;14.40;93.50;;;;;;5080261;28;19908;-72
2021/08/17 06:41:18;;;;;;;;;;;14.40;93.20;;;;;;5080541;28;20003;-71
2021/08/17 06:43:44;;;;;;;;;;;14.50;93.20;;;;;;5080383;28;19944;-71
2021/08/17 06:46:10;;;;;;;;;;;14.50;93.10;;;;;;5080554;28;19909;-71
2021/08/17 06:48:36;;;;;;;;;;;14.50;92.90;;;;;;5080494;28;19912;-71
2021/08/17 06:51:01;;;;;;;;;;;14.60;92.70;;;;;;5080529;28;19912;-68
2021/08/17 06:53:27;;;;;;;;;;;14.60;92.60;;;;;;5078895;28;19921;-68
2021/08/17 06:55:52;;;;;;;;;;;14.60;92.60;;;;;;5080190;28;20247;-68
2021/08/17 06:58:18;;;;;;;;;;;14.60;92.50;;;;;;5079055;28;19990;-68
2021/08/17 07:00:44;;;;;;;;;;;14.70;92.40;;;;;;5079100;28;20287;-68
2021/08/17 07:03:10;;;;;;;;;;;14.70;92.20;;;;;;5079969;28;19913;-68
2021/08/17 07:05:42;;;;;;;;;;;14.70;92.20;;;;;;5080234;28;19913;-68
2021/08/17 07:08:08;;;;;;;;;;;14.70;92.00;;;;;;5062997;28;19908;-77
2021/08/17 07:10:34;;;;;;;;;;;14.70;91.60;;;;;;5080149;28;19956;-77
2021/08/17 07:13:00;;;;;;;;;;;14.70;91.60;;;;;;5080408;28;19998;-77
2021/08/17 07:15:25;;;;;;;;;;;14.70;91.60;;;;;;5081537;28;20295;-77
2021/08/17 07:17:51;;;;;;;;;;;14.70;91.60;;;;;;5084491;28;20141;-71
2021/08/17 07:20:16;;;;;;;;;;;14.70;91.60;;;;;;5083320;28;19919;-71
2021/08/17 07:22:42;;;;;;;;;;;14.80;91.60;;;;;;5084275;28;19912;-71
2021/08/17 07:25:08;;;;;;;;;;;14.80;91.40;;;;;;5084568;28;20385;-77
2021/08/17 07:27:33;;;;;;;;;;;14.80;91.10;;;;;;5084090;28;19908;-77
2021/08/17 07:29:59;;;;;;;;;;;14.90;91.10;;;;;;5084196;28;19919;-77
2021/08/17 07:32:24;;;;;;;;;;;14.90;91.10;;;;;;5082847;28;19925;-77
2021/08/17 07:34:50;;;;;;;;;;;15.00;91.10;;;;;;5084233;28;19919;-77
2021/08/17 07:37:15;;;;;;;;;;;15.10;90.70;;;;;;5084058;28;20294;-77
2021/08/17 07:39:41;;;;;;;;;;;15.10;90.70;;;;;;5083469;28;20377;-78
2021/08/17 07:42:06;;;;;;;;;;;15.10;90.40;;;;;;5083716;28;20350;-78
2021/08/17 07:44:33;;;;;;;;;;;15.20;90.30;;;;;;5083448;28;20270;-78
2021/08/17 07:46:58;;;;;;;;;;;15.20;90.00;;;;;;5083929;28;20344;-77
2021/08/17 07:49:24;;;;;;;;;;;15.30;90.00;;;;;;5083856;28;19913;-77
2021/08/17 07:51:49;;;;;;;;;;;15.40;90.00;;;;;;5083767;28;20377;-77
2021/08/17 07:54:15;;;;;;;;;;;15.40;89.70;;;;;;5083739;28;20458;-77
2021/08/17 07:56:40;;;;;;;;;;;15.40;89.00;;;;;;5083660;28;19981;-77
2021/08/17 07:59:06;;;;;;;;;;;15.50;89.10;;;;;;5083892;28;19923;-78
2021/08/17 08:01:31;;;;;;;;;;;15.50;88.70;;;;;;5083564;28;19912;-77
2021/08/17 08:03:59;;;;;;;;;;;15.50;88.90;;;;;;5082992;28;19908;-77
2021/08/17 08:06:25;;;;;;;;;;;15.60;88.60;;;;;;5081727;28;20288;-77
2021/08/17 08:08:50;;;;;;;;;;;15.60;88.30;;;;;;5083301;28;19908;-77
2021/08/17 08:11:16;;;;;;;;;;;15.60;88.20;;;;;;5083284;28;19997;-77
2021/08/17 08:13:41;;;;;;;;;;;15.60;88.20;;;;;;5083395;28;19919;-77
2021/08/17 08:16:07;;;;;;;;;;;15.70;88.10;;;;;;5083461;28;20400;-77
2021/08/17 08:18:32;;;;;;;;;;;15.70;88.10;;;;;;5083026;28;19908;-69
2021/08/17 08:20:58;;;;;;;;;;;15.80;87.40;;;;;;5082907;28;19912;-68
2021/08/17 08:23:23;;;;;;;;;;;15.80;87.30;;;;;;5082895;28;19959;-68
2021/08/17 08:25:49;;;;;;;;;;;15.90;86.40;;;;;;5028504;27;20283;-68
2021/08/17 08:28:14;;;;;;;;;;;15.90;86.70;;;;;;5051004;28;20280;-68
2021/08/17 08:30:40;;;;;;;;;;;15.80;85.80;;;;;;5042748;28;19963;-68
2021/08/17 08:33:05;;;;;;;;;;;15.80;85.70;;;;;;5041280;28;20265;-68
2021/08/17 08:35:31;;;;;;;;;;;15.80;85.00;;;;;;5058077;28;20531;-68
2021/08/17 08:37:56;;;;;;;;;;;15.90;85.60;;;;;;5042820;28;19913;-68
2021/08/17 08:40:25;;;;;;;;;;;16.00;85.10;;;;;;5043053;28;20372;-68
2021/08/17 08:42:52;;;;;;;;;;;16.10;84.70;;;;;;5043055;28;19966;-68
2021/08/17 08:45:17;;;;;;;;;;;16.20;84.60;;;;;;5043101;28;19910;-68
2021/08/17 08:47:43;;;;;;;;;;;16.30;84.00;;;;;;5041312;28;19909;-68
2021/08/17 08:50:09;;;;;;;;;;;16.40;83.80;;;;;;5042905;28;19996;-68
2021/08/17 08:52:35;;;;;;;;;;;16.50;83.60;;;;;;5041068;28;20398;-68
2021/08/17 08:55:03;;;;;;;;;;;16.70;82.30;;;;;;5057809;28;19913;-68
2021/08/17 08:57:29;;;;;;;;;;;16.80;81.80;;;;;;5042428;28;19964;-68
2021/08/17 08:59:55;;;;;;;;;;;16.90;81.70;;;;;;5042476;28;20344;-68
2021/08/17 09:02:26;;;;;;;;;;;17.10;80.20;;;;;;5042202;28;19952;-68
2021/08/17 09:04:53;;;;;;;;;;;17.10;79.90;;;;;;5042511;28;20307;-78
2021/08/17 09:07:34;;;;;;;;;;;17.10;79.10;;;;;;5042631;28;20374;-78
2021/08/17 09:10:01;;;;;;;;;;;17.10;79.90;;;;;;5041138;28;19908;-77
2021/08/17 09:12:38;;;;;;;;;;;17.10;79.70;;;;;;5057452;28;19974;-78
2021/08/17 09:15:07;;;;;;;;;;;17.10;80.40;;;;;;5042184;28;19951;-77
2021/08/17 09:17:33;;;;;;;;;;;17.10;79.40;;;;;;5041955;28;20368;-78
2021/08/17 09:19:58;;;;;;;;;;;17.10;78.60;;;;;;5049016;28;19909;-77
2021/08/17 09:22:25;;;;;;;;;;;17.10;79.20;;;;;;5041886;28;19913;-78
2021/08/17 09:24:51;;;;;;;;;;;17.00;78.50;;;;;;5042159;28;19912;-71
2021/08/17 09:27:18;;;;;;;;;;;17.00;79.30;;;;;;5041136;28;19916;-71
2021/08/17 09:29:45;;;;;;;;;;;17.00;78.90;;;;;;5042163;28;19913;-71
2021/08/17 09:32:16;;;;;;;;;;;16.90;78.70;;;;;;5041712;28;19913;-71
2021/08/17 09:34:42;;;;;;;;;;;16.90;79.40;;;;;;5041516;28;19913;-71
2021/08/17 09:37:10;;;;;;;;;;;16.90;79.30;;;;;;5041677;28;19919;-71
2021/08/17 09:39:40;;;;;;;;;;;17.00;79.90;;;;;;5041268;28;20663;-71
2021/08/17 09:42:20;;;;;;;;;;;17.00;79.70;;;;;;5041769;28;19909;-71
2021/08/17 09:44:47;;;;;;;;;;;17.10;79.50;;;;;;5042171;28;19909;-78
2021/08/17 09:47:12;;;;;;;;;;;17.10;79.30;;;;;;5041907;28;20380;-78
2021/08/17 09:49:40;;;;;;;;;;;17.20;79.30;;;;;;5040351;28;20015;-78
2021/08/17 09:52:15;;;;;;;;;;;17.30;78.60;;;;;;5041275;28;19919;-78
2021/08/17 09:54:42;;;;;;;;;;;17.40;78.50;;;;;;5041674;28;19924;-78
2021/08/17 09:57:08;;;;;;;;;;;17.50;78.10;;;;;;5041299;28;19917;-78
2021/08/17 09:59:35;;;;;;;;;;;17.60;78.40;;;;;;5041047;28;20322;-69
2021/08/17 10:02:01;;;;;;;;;;;17.70;78.30;;;;;;5041290;28;19909;-69
2021/08/17 10:04:27;;;;;;;;;;;17.70;78.00;;;;;;5039652;28;20269;-69
2021/08/17 10:06:53;;;;;;;;;;;17.80;77.20;;;;;;5041783;28;19913;-71
2021/08/17 10:09:19;;;;;;;;;;;17.80;77.40;;;;;;5041557;28;19916;-71
2021/08/17 10:11:45;;;;;;;;;;;17.90;77.60;;;;;;5041076;28;20284;-71
2021/08/17 10:14:11;;;;;;;;;;;17.90;77.10;;;;;;5048004;28;20008;-72
2021/08/17 10:16:37;;;;;;;;;;;17.80;76.50;;;;;;5041210;28;19924;-71
2021/08/17 10:19:02;;;;;;;;;;;17.80;76.80;;;;;;5040871;28;20480;-71
2021/08/17 10:21:28;;;;;;;;;;;17.80;77.30;;;;;;5040938;28;19908;-71
2021/08/17 10:23:53;;;;;;;;;;;17.80;76.80;;;;;;5040788;28;19920;-78
2021/08/17 10:26:30;;;;;;;;;;;17.80;77.00;;;;;;5040961;28;20376;-78
2021/08/17 10:28:56;;;;;;;;;;;17.90;76.40;;;;;;5040853;28;19909;-69
2021/08/17 10:31:23;;;;;;;;;;;17.90;76.40;;;;;;5039482;28;19923;-69
2021/08/17 10:33:51;;;;;;;;;;;17.90;75.80;;;;;;5040710;28;19921;-68
2021/08/17 10:36:34;;;;;;;;;;;17.90;76.10;;;;;;5040835;28;19917;-68
2021/08/17 10:39:20;;;;;;;;;;;18.00;76.40;;;;;;5040907;28;20048;-69
2021/08/17 10:41:46;;;;;;;;;;;18.00;75.70;;;;;;5054965;28;20292;-69
2021/08/17 10:44:21;;;;;;;;;;;18.00;75.80;;;;;;5040832;28;19913;-69
2021/08/17 10:46:54;;;;;;;;;;;18.00;75.90;;;;;;5047431;28;19913;-71
2021/08/17 10:49:22;;;;;;;;;;;17.90;75.80;;;;;;5039822;28;19955;-71
2021/08/17 10:51:49;;;;;;;;;;;17.90;76.40;;;;;;5040311;28;19909;-71
2021/08/17 10:54:15;;;;;;;;;;;18.00;76.00;;;;;;5040274;28;19913;-71
2021/08/17 10:56:41;;;;;;;;;;;18.00;75.60;;;;;;5046989;28;19924;-78
2021/08/17 10:59:07;;;;;;;;;;;18.00;75.20;;;;;;5039342;28;20315;-78
2021/08/17 11:01:35;;;;;;;;;;;18.00;75.30;;;;;;5040304;28;19915;-78
2021/08/17 11:04:02;;;;;;;;;;;17.90;75.70;;;;;;5040347;28;19909;-78
2021/08/17 11:06:42;;;;;;;;;;;17.90;76.20;;;;;;5040771;28;20491;-78
2021/08/17 11:09:10;;;;;;;;;;;17.90;76.90;;;;;;5047304;28;19909;-78
2021/08/17 11:11:35;;;;;;;;;;;17.90;77.10;;;;;;5040719;28;19909;-78
2021/08/17 11:14:04;;;;;;;;;;;17.90;77.00;;;;;;5040373;28;19909;-78
2021/08/17 11:16:30;;;;;;;;;;;17.90;76.70;;;;;;5040060;28;19924;-78
2021/08/17 11:18:58;;;;;;;;;;;17.90;76.20;;;;;;5040345;28;19913;-78
2021/08/17 11:21:39;;;;;;;;;;;17.80;76.50;;;;;;5040375;28;19913;-78
2021/08/17 11:24:05;;;;;;;;;;;17.70;76.10;;;;;;5040155;28;19952;-69
2021/08/17 11:26:31;;;;;;;;;;;17.80;75.70;;;;;;5046909;28;19912;-68
2021/08/17 11:28:56;;;;;;;;;;;17.70;75.40;;;;;;5039930;28;19921;-68
2021/08/17 11:31:22;;;;;;;;;;;17.70;75.10;;;;;;5054968;28;19917;-69
2021/08/17 11:33:48;;;;;;;;;;;17.80;75.50;;;;;;5040292;28;19920;-68
2021/08/17 11:36:20;;;;;;;;;;;17.80;75.40;;;;;;5040207;28;19917;-68
2021/08/17 11:38:46;;;;;;;;;;;17.80;75.00;;;;;;5040247;28;20000;-68
2021/08/17 11:41:27;;;;;;;;;;;17.80;74.50;;;;;;5040463;28;20012;-78
2021/08/17 11:44:09;;;;;;;;;;;17.90;74.10;;;;;;5039947;28;19913;-78
2021/08/17 11:46:34;;;;;;;;;;;17.90;73.10;;;;;;5040258;28;19979;-77
2021/08/17 11:49:19;;;;;;;;;;;17.90;73.20;;;;;;5039973;28;20379;-78
2021/08/17 11:51:44;;;;;;;;;;;17.90;72.80;;;;;;5055792;28;19917;-73
2021/08/17 11:54:13;;;;;;;;;;;18.00;73.40;;;;;;5039829;28;20410;-73
2021/08/17 11:56:38;;;;;;;;;;;18.00;73.40;;;;;;5040054;28;20379;-73
2021/08/17 11:59:03;;;;;;;;;;;18.00;73.60;;;;;;5039848;28;19909;-72
2021/08/17 12:01:29;;;;;;;;;;;18.00;73.50;;;;;;5040936;28;19960;-73
2021/08/17 12:04:15;;;;;;;;;;;18.00;73.10;;;;;;5043644;28;20406;-72
2021/08/17 12:06:40;;;;;;;;;;;18.00;72.70;;;;;;5043161;28;20007;-77
2021/08/17 12:09:18;;;;;;;;;;;18.00;72.80;;;;;;5043620;28;20000;-78
2021/08/17 12:11:56;;;;;;;;;;;18.10;73.10;;;;;;5042884;28;20384;-78
2021/08/17 12:14:22;;;;;;;;;;;18.10;73.20;;;;;;5043215;28;19917;-78
2021/08/17 12:16:54;;;;;;;;;;;18.10;73.80;;;;;;5043141;28;20433;-78
2021/08/17 12:19:20;;;;;;;;;;;18.00;75.60;;;;;;5043363;28;19996;-78
2021/08/17 12:21:46;;;;;;;;;;;18.00;75.70;;;;;;5043066;28;20003;-77
2021/08/17 12:24:25;;;;;;;;;;;18.00;75.00;;;;;;5043302;28;20429;-78
2021/08/17 12:26:52;;;;;;;;;;;18.00;74.60;;;;;;5050137;28;20296;-77
2021/08/17 12:29:22;;;;;;;;;;;18.00;74.10;;;;;;5043350;28;19913;-78
2021/08/17 12:31:48;;;;;;;;;;;18.00;74.00;;;;;;5049789;28;20346;-77
2021/08/17 12:34:14;;;;;;;;;;;18.00;73.80;;;;;;5043141;28;20054;-78
2021/08/17 12:36:57;;;;;;;;;;;18.00;73.30;;;;;;5042845;28;19924;-78
2021/08/17 12:39:24;;;;;;;;;;;18.00;72.80;;;;;;5042696;28;19924;-78
2021/08/17 12:41:51;;;;;;;;;;;18.00;72.60;;;;;;5042802;28;19909;-78
2021/08/17 12:44:24;;;;;;;;;;;18.10;72.80;;;;;;5049625;28;19916;-78
2021/08/17 12:46:58;;;;;;;;;;;18.20;72.90;;;;;;5042747;28;20327;-77
2021/08/17 12:49:34;;;;;;;;;;;18.20;73.00;;;;;;5042836;28;19936;-77
2021/08/17 12:52:16;;;;;;;;;;;18.30;73.00;;;;;;5042688;28;19909;-77
2021/08/17 12:54:42;;;;;;;;;;;18.40;72.90;;;;;;5042541;28;19914;-77
2021/08/17 12:57:08;;;;;;;;;;;18.40;71.80;;;;;;5042405;28;19920;-77
2021/08/17 12:59:33;;;;;;;;;;;18.50;71.60;;;;;;5042519;28;19913;-71
2021/08/17 13:01:58;;;;;;;;;;;18.50;71.90;;;;;;5042395;28;20352;-71
2021/08/17 13:04:24;;;;;;;;;;;18.50;72.00;;;;;;5042701;28;19913;-71
2021/08/17 13:06:49;;;;;;;;;;;18.60;70.70;;;;;;5042525;28;19913;-71
2021/08/17 13:09:14;;;;;;;;;;;18.60;70.40;;;;;;5042824;28;19909;-71
2021/08/17 13:11:40;;;;;;;;;;;18.60;70.40;;;;;;5042051;28;19913;-71
2021/08/17 13:14:05;;;;;;;;;;;18.60;70.80;;;;;;5041739;28;19913;-71
2021/08/17 13:16:31;;;;;;;;;;;18.60;71.40;;;;;;5042121;28;20288;-71
2021/08/17 13:18:56;;;;;;;;;;;18.70;71.40;;;;;;5042245;28;19932;-77
2021/08/17 13:21:21;;;;;;;;;;;18.70;71.40;;;;;;5042033;28;20011;-77
2021/08/17 13:23:47;;;;;;;;;;;18.70;71.20;;;;;;5042203;28;19916;-77
2021/08/17 13:26:12;;;;;;;;;;;18.80;71.10;;;;;;5041997;28;19915;-77
2021/08/17 13:28:38;;;;;;;;;;;18.80;70.80;;;;;;5042191;28;19912;-77
2021/08/17 13:31:03;;;;;;;;;;;18.80;70.50;;;;;;5041960;28;19909;-77
2021/08/17 13:33:29;;;;;;;;;;;18.80;70.50;;;;;;5041713;28;19921;-77
2021/08/17 13:35:55;;;;;;;;;;;18.80;70.70;;;;;;5041760;28;19952;-77
2021/08/17 13:38:20;;;;;;;;;;;18.80;73.20;;;;;;5042384;28;20394;-78
2021/08/17 13:40:45;;;;;;;;;;;18.60;74.50;;;;;;5041595;28;20011;-77
2021/08/17 13:43:11;;;;;;;;;;;18.50;76.40;;;;;;5041899;28;19912;-71
2021/08/17 13:45:36;;;;;;;;;;;18.40;76.80;;;;;;5041856;28;20011;-71
2021/08/17 13:48:02;;;;;;;;;;;18.30;76.80;;;;;;5041559;28;20380;-71
2021/08/17 13:50:27;;;;;;;;;;;18.20;76.80;;;;;;5041490;28;20365;-71
2021/08/17 13:52:53;;;;;;;;;;;18.20;77.40;;;;;;5041642;28;20224;-71
2021/08/17 13:55:18;;;;;;;;;;;18.20;77.40;;;;;;5041383;28;19913;-77
2021/08/17 13:57:44;;;;;;;;;;;18.20;77.70;;;;;;5041349;28;19913;-77
2021/08/17 14:00:09;;;;;;;;;;;18.30;78.00;;;;;;5041669;28;19963;-77
2021/08/17 14:02:35;;;;;;;;;;;18.30;77.90;;;;;;5039780;28;19995;-77
2021/08/17 14:05:00;;;;;;;;;;;18.30;78.30;;;;;;5047946;28;19920;-68
2021/08/17 14:07:26;;;;;;;;;;;18.40;78.50;;;;;;5039576;28;20307;-68
2021/08/17 14:09:51;;;;;;;;;;;18.40;79.00;;;;;;5041651;28;19909;-68
2021/08/17 14:12:17;;;;;;;;;;;18.40;79.30;;;;;;5039607;28;19956;-68